createdAt,value
2023-02-17T00:01:32.447Z,99726.95
2023-02-17T00:04:00.966Z,99722.93
2023-02-17T00:06:30.213Z,99720.25
2023-02-17T00:09:02.023Z,99721.30
2023-02-17T00:11:31.156Z,99720.66
2023-02-17T00:14:00.391Z,99718.42
2023-02-17T00:16:28.597Z,99720.16
2023-02-17T00:18:58.860Z,99720.56
2023-02-17T00:21:29.155Z,99713.69
2023-02-17T00:23:57.655Z,99711.70
2023-02-17T00:26:25.853Z,99702.71
2023-02-17T00:28:55.117Z,99699.89
2023-02-17T00:31:25.202Z,99701.98
2023-02-17T00:33:55.649Z,99701.10
2023-02-17T00:36:24.101Z,99703.36
2023-02-17T00:38:53.864Z,99702.88
2023-02-17T00:41:22.696Z,99700.54
2023-02-17T00:43:51.033Z,99699.83
2023-02-17T00:46:19.128Z,99695.55
2023-02-17T00:48:48.754Z,99696.42
2023-02-17T00:51:17.394Z,99689.10
2023-02-17T00:53:46.087Z,99689.80
2023-02-17T00:56:14.428Z,99689.59
2023-02-17T00:58:42.746Z,99686.85
2023-02-17T01:01:11.431Z,99684.66
2023-02-17T01:03:42.345Z,99684.29
2023-02-17T01:06:11.654Z,99675.72
2023-02-17T01:08:41.812Z,99675.28
2023-02-17T01:11:17.786Z,99675.14
2023-02-17T01:13:46.572Z,99670.38
2023-02-17T01:16:23.386Z,99671.48
2023-02-17T01:18:51.527Z,99673.15
2023-02-17T01:21:22.682Z,99670.52
2023-02-17T01:23:52.081Z,99669.55
2023-02-17T01:26:22.087Z,99665.25
2023-02-17T01:28:50.537Z,99662.90
2023-02-17T01:31:19.095Z,99659.08
2023-02-17T01:33:48.754Z,99658.14
2023-02-17T01:36:17.952Z,99660.77
2023-02-17T01:38:48.706Z,99659.61
2023-02-17T01:41:21.059Z,99663.62
2023-02-17T01:44:21.934Z,99663.63
2023-02-17T01:46:51.466Z,99664.31
2023-02-17T01:49:24.487Z,99666.85
2023-02-17T01:52:04.237Z,99668.14
2023-02-17T01:54:46.571Z,99666.12
2023-02-17T01:57:16.767Z,99664.15
2023-02-17T01:59:45.530Z,99658.98
2023-02-17T02:02:13.747Z,99657.90
2023-02-17T02:04:44.518Z,99662.12
2023-02-17T02:07:26.171Z,99660.98
2023-02-17T02:09:56.476Z,99662.20
2023-02-17T02:12:35.759Z,99661.33
2023-02-17T02:15:08.979Z,99658.41
2023-02-17T02:17:59.262Z,99660.20
2023-02-17T02:20:33.333Z,99659.85
2023-02-17T02:23:26.566Z,99656.30
2023-02-17T02:26:14.528Z,99655.50
2023-02-17T02:28:55.090Z,99653.69
2023-02-17T02:31:30.322Z,99652.88
2023-02-17T02:34:04.553Z,99651.11
2023-02-17T02:36:35.522Z,99647.05
2023-02-17T02:39:16.410Z,99644.61
2023-02-17T02:42:02.138Z,99643.88
2023-02-17T02:44:34.702Z,99644.48
2023-02-17T02:47:06.475Z,99649.60
2023-02-17T02:49:35.952Z,99655.19
2023-02-17T02:52:23.465Z,99657.79
2023-02-17T02:55:14.401Z,99657.91
2023-02-17T02:58:02.012Z,99660.95
2023-02-17T03:00:46.527Z,99661.31
2023-02-17T03:03:27.553Z,99664.88
2023-02-17T03:06:00.549Z,99666.53
2023-02-17T03:08:44.184Z,99669.30
2023-02-17T03:11:12.359Z,99674.78
2023-02-17T03:13:41.273Z,99678.31
2023-02-17T03:16:14.790Z,99679.10
2023-02-17T03:18:43.135Z,99676.06
2023-02-17T03:21:14.573Z,99675.68
2023-02-17T03:23:43.911Z,99674.59
2023-02-17T03:26:12.145Z,99675.65
2023-02-17T03:29:57.983Z,99679.52
2023-02-17T03:32:26.056Z,99673.28
2023-02-17T03:34:54.289Z,99674.21
2023-02-17T03:37:22.307Z,99673.55
2023-02-17T03:39:50.539Z,99670.07
2023-02-17T03:42:18.615Z,99673.04
2023-02-17T03:44:46.603Z,99675.85
2023-02-17T03:47:14.622Z,99674.89
2023-02-17T03:49:43.843Z,99675.82
2023-02-17T03:52:11.934Z,99676.70
2023-02-17T03:54:39.921Z,99678.69
2023-02-17T03:57:07.914Z,99683.48
2023-02-17T03:59:36.267Z,99683.73
2023-02-17T04:02:09.345Z,99683.13
2023-02-17T04:04:39.345Z,99682.85
2023-02-17T04:07:07.816Z,99684.00
2023-02-17T04:09:38.501Z,99683.23
2023-02-17T04:12:06.713Z,99686.23
2023-02-17T04:14:34.741Z,99686.73
2023-02-17T04:17:03.010Z,99684.62
2023-02-17T04:19:31.378Z,99686.71
2023-02-17T04:22:00.895Z,99679.56
2023-02-17T04:24:29.511Z,99685.35
2023-02-17T04:26:58.139Z,99687.28
2023-02-17T04:29:26.169Z,99687.23
2023-02-17T04:31:54.152Z,99689.96
2023-02-17T04:34:22.645Z,99693.73
2023-02-17T04:36:50.660Z,99683.52
2023-02-17T04:39:19.301Z,99681.60
2023-02-17T04:41:47.459Z,99682.67
2023-02-17T04:44:15.955Z,99685.16
2023-02-17T04:46:44.086Z,99689.17
2023-02-17T04:49:12.215Z,99696.59
2023-02-17T04:51:40.581Z,99696.33
2023-02-17T04:54:09.292Z,99701.44
2023-02-17T04:56:38.609Z,99705.04
2023-02-17T04:59:07.329Z,99703.83
2023-02-17T05:01:35.650Z,99701.96
2023-02-17T05:04:08.569Z,99701.08
2023-02-17T05:06:37.711Z,99700.31
2023-02-17T05:09:06.161Z,99704.36
2023-02-17T05:11:34.972Z,99709.36
2023-02-17T05:14:02.881Z,99706.52
2023-02-17T05:16:30.865Z,99707.67
2023-02-17T05:18:59.400Z,99702.04
2023-02-17T05:21:29.942Z,99701.37
2023-02-17T05:23:57.999Z,99702.84
2023-02-17T05:26:25.992Z,99704.89
2023-02-17T05:28:54.444Z,99703.53
2023-02-17T05:31:22.902Z,99709.73
2023-02-17T05:33:54.612Z,99712.33
2023-02-17T05:36:23.211Z,99715.80
2023-02-17T05:38:52.257Z,99719.09
2023-02-17T05:41:20.479Z,99724.39
2023-02-17T05:43:49.450Z,99728.54
2023-02-17T05:46:17.721Z,99735.67
2023-02-17T05:48:48.768Z,99734.02
2023-02-17T05:51:17.422Z,99742.57
2023-02-17T05:53:46.428Z,99740.29
2023-02-17T05:56:14.762Z,99739.37
2023-02-17T05:58:44.457Z,99739.52
2023-02-17T06:01:13.262Z,99737.00
2023-02-17T06:03:41.713Z,99742.32
2023-02-17T06:06:09.787Z,99747.75
2023-02-17T06:08:37.924Z,99744.13
2023-02-17T06:11:11.300Z,99750.20
2023-02-17T06:13:39.562Z,99752.09
2023-02-17T06:16:08.376Z,99756.48
2023-02-17T06:18:36.585Z,99759.57
2023-02-17T06:21:05.138Z,99760.34
2023-02-17T06:23:33.702Z,99764.00
2023-02-17T06:26:01.648Z,99769.79
2023-02-17T06:28:29.843Z,99770.95
2023-02-17T06:30:57.996Z,99772.86
2023-02-17T06:33:26.342Z,99770.95
2023-02-17T06:35:54.696Z,99771.95
2023-02-17T06:38:23.010Z,99776.12
2023-02-17T06:40:51.292Z,99782.27
2023-02-17T06:43:22.108Z,99793.70
2023-02-17T06:45:50.301Z,99792.13
2023-02-17T06:48:18.970Z,99794.40
2023-02-17T06:50:49.810Z,99791.40
2023-02-17T06:53:17.918Z,99787.33
2023-02-17T06:55:46.033Z,99786.55
2023-02-17T06:58:15.052Z,99790.31
2023-02-17T07:00:43.099Z,99789.98
2023-02-17T07:03:12.132Z,99796.16
2023-02-17T07:05:40.342Z,99794.38
2023-02-17T07:08:08.783Z,99799.86
2023-02-17T07:10:37.714Z,99804.80
2023-02-17T07:13:08.963Z,99807.57
2023-02-17T07:15:37.862Z,99812.01
2023-02-17T07:18:06.245Z,99810.12
2023-02-17T07:20:35.856Z,99815.45
2023-02-17T07:23:04.961Z,99811.09
2023-02-17T07:25:34.464Z,99812.98
2023-02-17T07:28:02.648Z,99808.31
2023-02-17T07:30:32.726Z,99810.86
2023-02-17T07:33:00.944Z,99811.28
2023-02-17T07:35:29.214Z,99810.97
2023-02-17T07:37:58.413Z,99808.48
2023-02-17T07:40:27.097Z,99809.14
2023-02-17T07:42:56.588Z,99811.63
2023-02-17T07:45:24.666Z,99811.69
2023-02-17T07:47:52.737Z,99816.62
2023-02-17T07:50:20.764Z,99822.00
2023-02-17T07:52:48.925Z,99826.60
2023-02-17T07:55:17.129Z,99829.10
2023-02-17T07:57:45.226Z,99826.29
2023-02-17T08:00:14.222Z,99837.89
2023-02-17T08:02:42.342Z,99840.45
2023-02-17T08:05:10.810Z,99840.11
2023-02-17T08:07:39.501Z,99834.00
2023-02-17T08:10:27.374Z,99835.46
2023-02-17T08:13:14.893Z,99835.70
2023-02-17T08:15:43.135Z,99838.40
2023-02-17T08:18:11.826Z,99837.90
2023-02-17T08:20:40.249Z,99839.05
2023-02-17T08:23:10.256Z,99846.04
2023-02-17T08:25:38.349Z,99849.76
2023-02-17T08:28:12.493Z,99852.58
2023-02-17T08:30:40.996Z,99853.77
2023-02-17T08:33:09.421Z,99853.23
2023-02-17T08:35:39.128Z,99853.70
2023-02-17T08:38:07.726Z,99861.91
2023-02-17T08:40:36.910Z,99861.02
2023-02-17T08:43:08.809Z,99862.05
2023-02-17T08:45:38.299Z,99865.14
2023-02-17T08:48:07.084Z,99866.00
2023-02-17T08:50:35.438Z,99869.67
2023-02-17T08:53:04.479Z,99871.53
2023-02-17T08:55:47.302Z,99874.90
2023-02-17T08:58:16.720Z,99873.30
2023-02-17T09:00:46.332Z,99874.39
2023-02-17T09:03:15.141Z,99877.63
2023-02-17T09:05:46.360Z,99871.37
2023-02-17T09:08:15.658Z,99865.73
2023-02-17T09:10:46.628Z,99870.84
2023-02-17T09:13:27.552Z,99875.66
2023-02-17T09:15:56.789Z,99885.23
2023-02-17T09:18:26.724Z,99885.06
2023-02-17T09:20:55.542Z,99887.04
2023-02-17T09:23:24.050Z,99888.36
2023-02-17T09:26:02.652Z,99887.47
2023-02-17T09:28:32.580Z,99882.95
2023-02-17T09:31:14.683Z,99878.80
2023-02-17T09:33:43.432Z,99877.14
2023-02-17T09:36:13.685Z,99878.08
2023-02-17T09:38:42.742Z,99878.52
2023-02-17T09:41:24.845Z,99884.02
2023-02-17T09:43:53.146Z,99882.00
2023-02-17T09:46:36.081Z,99881.73
2023-02-17T09:49:09.609Z,99880.98
2023-02-17T09:51:49.054Z,99881.36
2023-02-17T09:54:26.765Z,99879.54
2023-02-17T09:56:55.998Z,99882.45
2023-02-17T09:59:29.908Z,99881.70
2023-02-17T10:01:58.424Z,99878.59
2023-02-17T10:04:39.531Z,99877.38
2023-02-17T10:07:12.434Z,99875.48
2023-02-17T10:09:56.129Z,99873.55
2023-02-17T10:12:26.312Z,99875.40
2023-02-17T10:15:04.372Z,99878.58
2023-02-17T10:17:47.581Z,99872.89
2023-02-17T10:20:34.897Z,99879.70
2023-02-17T10:23:07.681Z,99875.95
2023-02-17T10:25:57.995Z,99872.75
2023-02-17T10:28:52.100Z,99867.59
2023-02-17T10:31:27.547Z,99866.21
2023-02-17T10:34:06.026Z,99867.99
2023-02-17T10:36:54.621Z,99867.71
2023-02-17T10:39:35.012Z,99871.30
2023-02-17T10:42:03.841Z,99875.23
2023-02-17T10:44:34.719Z,99875.27
2023-02-17T10:47:02.785Z,99872.84
2023-02-17T10:49:41.994Z,99870.46
2023-02-17T10:52:12.125Z,99876.05
2023-02-17T10:54:44.130Z,99877.42
2023-02-17T10:57:12.877Z,99877.52
2023-02-17T10:59:42.980Z,99877.02
2023-02-17T11:02:34.616Z,99875.23
2023-02-17T11:05:02.704Z,99873.96
2023-02-17T11:07:38.886Z,99872.06
2023-02-17T11:10:28.717Z,99874.63
2023-02-17T11:12:58.853Z,99870.11
2023-02-17T11:15:51.267Z,99874.95
2023-02-17T11:18:21.716Z,99871.49
2023-02-17T11:20:50.409Z,99873.38
2023-02-17T11:23:23.152Z,99873.46
2023-02-17T11:26:03.810Z,99874.42
2023-02-17T11:28:32.022Z,99875.73
2023-02-17T11:31:02.790Z,99877.95
2023-02-17T11:33:38.313Z,99877.77
2023-02-17T11:36:07.680Z,99875.98
2023-02-17T11:38:40.082Z,99877.58
2023-02-17T11:41:09.586Z,99873.10
2023-02-17T11:43:40.015Z,99873.33
2023-02-17T11:46:18.032Z,99873.10
2023-02-17T11:49:07.760Z,99868.95
2023-02-17T11:51:43.688Z,99869.57
2023-02-17T11:54:18.086Z,99867.48
2023-02-17T11:57:26.397Z,99863.71
2023-02-17T12:00:20.875Z,99866.67
2023-02-17T12:03:10.212Z,99863.69
2023-02-17T12:05:53.783Z,99862.91
2023-02-17T12:08:38.507Z,99866.15
2023-02-17T12:11:37.584Z,99862.91
2023-02-17T12:14:29.735Z,99869.02
2023-02-17T12:17:06.404Z,99860.72
2023-02-17T12:20:04.804Z,99859.15
2023-02-17T12:22:39.069Z,99861.23
2023-02-17T12:25:16.632Z,99859.11
2023-02-17T12:28:06.823Z,99858.95
2023-02-17T12:30:39.217Z,99859.11
2023-02-17T12:33:13.381Z,99856.50
2023-02-17T12:35:51.188Z,99856.94
2023-02-17T12:39:16.031Z,99863.21
2023-02-17T12:41:51.370Z,99863.33
2023-02-17T12:44:35.133Z,99865.12
2023-02-17T12:47:10.278Z,99866.79
2023-02-17T12:49:48.848Z,99863.02
2023-02-17T12:52:20.020Z,99860.15
2023-02-17T12:54:53.061Z,99860.33
2023-02-17T12:58:00.814Z,99862.36
2023-02-17T13:00:29.892Z,99858.69
2023-02-17T13:02:59.003Z,99855.91
2023-02-17T13:05:43.615Z,99859.70
2023-02-17T13:08:32.188Z,99853.69
2023-02-17T13:11:10.924Z,99848.15
2023-02-17T13:13:38.932Z,99850.09
2023-02-17T13:16:11.995Z,99858.58
2023-02-17T13:18:44.648Z,99851.55
2023-02-17T13:21:25.111Z,99857.38
2023-02-17T13:24:14.816Z,99858.41
2023-02-17T13:26:43.814Z,99859.84
2023-02-17T13:29:19.478Z,99851.23
2023-02-17T13:31:53.063Z,99844.92
2023-02-17T13:34:26.223Z,99847.73
2023-02-17T13:36:54.733Z,99850.91
2023-02-17T13:39:26.884Z,99849.40
2023-02-17T13:41:59.247Z,99847.52
2023-02-17T13:44:33.999Z,99851.13
2023-02-17T13:47:04.060Z,99850.81
2023-02-17T13:49:35.368Z,99849.16
2023-02-17T13:52:08.514Z,99846.62
2023-02-17T13:54:37.522Z,99842.71
2023-02-17T13:57:05.806Z,99838.82
2023-02-17T13:59:37.044Z,99842.55
2023-02-17T14:02:35.015Z,99842.77
2023-02-17T14:05:28.583Z,99845.60
2023-02-17T14:08:00.568Z,99846.97
2023-02-17T14:10:28.570Z,99847.52
2023-02-17T14:12:58.174Z,99858.48
2023-02-17T14:15:27.982Z,99858.05
2023-02-17T14:17:56.142Z,99857.39
2023-02-17T14:20:32.861Z,99852.17
2023-02-17T14:23:14.203Z,99857.64
2023-02-17T14:25:46.573Z,99858.78
2023-02-17T14:28:26.878Z,99857.67
2023-02-17T14:30:56.236Z,99858.40
2023-02-17T14:33:25.084Z,99854.95
2023-02-17T14:35:57.882Z,99858.33
2023-02-17T14:38:35.323Z,99857.89
2023-02-17T14:41:05.225Z,99855.63
2023-02-17T14:43:33.528Z,99863.08
2023-02-17T14:46:01.540Z,99863.27
2023-02-17T14:48:29.956Z,99857.34
2023-02-17T14:50:58.615Z,99864.04
2023-02-17T14:53:32.799Z,99865.83
2023-02-17T14:56:09.013Z,99870.16
2023-02-17T14:58:37.269Z,99872.45
2023-02-17T15:01:05.962Z,99873.23
2023-02-17T15:03:34.244Z,99870.36
2023-02-17T15:06:02.515Z,99867.00
2023-02-17T15:08:33.638Z,99872.01
2023-02-17T15:11:02.447Z,99872.77
2023-02-17T15:13:31.861Z,99873.16
2023-02-17T15:16:08.364Z,99868.77
2023-02-17T15:18:37.606Z,99868.96
2023-02-17T15:21:28.938Z,99869.11
2023-02-17T15:24:19.196Z,99871.71
2023-02-17T15:26:48.375Z,99869.23
2023-02-17T15:29:27.737Z,99869.40
2023-02-17T15:32:00.041Z,99873.59
2023-02-17T15:34:33.615Z,99875.13
2023-02-17T15:37:01.973Z,99872.42
2023-02-17T15:39:30.365Z,99874.50
2023-02-17T15:42:00.794Z,99875.73
2023-02-17T15:47:50.652Z,99867.11
2023-02-17T15:50:22.881Z,99865.06
2023-02-17T15:52:50.962Z,99863.05
2023-02-17T15:55:20.951Z,99864.64
2023-02-17T15:57:51.391Z,99862.80
2023-02-17T16:00:21.134Z,99861.89
2023-02-17T16:02:49.649Z,99857.39
2023-02-17T16:05:19.109Z,99854.67
2023-02-17T16:07:48.265Z,99854.14
2023-02-17T16:10:21.062Z,99852.70
2023-02-17T16:12:50.652Z,99851.31
2023-02-17T16:15:20.813Z,99849.31
2023-02-17T16:17:52.711Z,99847.38
2023-02-17T16:20:26.267Z,99842.41
2023-02-17T16:22:54.339Z,99839.38
2023-02-17T16:25:45.408Z,99836.55
2023-02-17T16:28:20.169Z,99839.13
2023-02-17T16:30:49.599Z,99837.79
2023-02-17T16:33:17.814Z,99842.65
2023-02-17T16:35:46.077Z,99841.54
2023-02-17T16:38:21.568Z,99845.77
2023-02-17T16:40:52.619Z,99851.91
2023-02-17T16:43:22.982Z,99854.35
2023-02-17T16:45:59.120Z,99856.13
2023-02-17T16:48:29.186Z,99857.32
2023-02-17T16:50:57.451Z,99859.70
2023-02-17T16:53:26.008Z,99862.06
2023-02-17T16:55:55.176Z,99855.95
2023-02-17T16:58:24.646Z,99851.54
2023-02-17T17:00:54.298Z,99849.37
2023-02-17T17:03:22.718Z,99850.43
2023-02-17T17:05:51.922Z,99846.02
2023-02-17T17:08:21.908Z,99844.72
2023-02-17T17:10:53.384Z,99842.92
2023-02-17T17:13:23.915Z,99839.59
2023-02-17T17:15:52.199Z,99836.33
2023-02-17T17:18:21.453Z,99836.33
2023-02-17T17:20:49.897Z,99838.70
2023-02-17T17:23:20.319Z,99831.30
2023-02-17T17:25:48.806Z,99826.24
2023-02-17T17:28:19.144Z,99824.80
2023-02-17T17:30:48.642Z,99815.72
2023-02-17T17:33:16.894Z,99811.16
2023-02-17T17:35:46.186Z,99807.55
2023-02-17T17:38:15.647Z,99802.28
2023-02-17T17:40:53.618Z,99799.50
2023-02-17T17:43:22.968Z,99799.71
2023-02-17T17:45:51.128Z,99795.79
2023-02-17T17:48:19.746Z,99791.90
2023-02-17T17:50:49.105Z,99795.27
2023-02-17T17:53:17.306Z,99787.15
2023-02-17T17:55:46.610Z,99788.09
2023-02-17T17:58:16.376Z,99789.23
2023-02-17T18:00:44.386Z,99785.55
2023-02-17T18:03:12.592Z,99782.79
2023-02-17T18:05:40.664Z,99779.24
2023-02-17T18:08:09.523Z,99777.16
2023-02-17T18:10:38.524Z,99767.83
2023-02-17T18:13:09.136Z,99764.63
2023-02-17T18:15:38.410Z,99764.83
2023-02-17T18:18:06.662Z,99762.40
2023-02-17T18:20:34.992Z,99760.88
2023-02-17T18:23:03.220Z,99753.60
2023-02-17T18:25:32.160Z,99744.91
2023-02-17T18:28:00.703Z,99742.30
2023-02-17T18:30:29.194Z,99743.73
2023-02-17T18:32:58.560Z,99741.77
2023-02-17T18:35:27.045Z,99727.65
2023-02-17T18:37:55.332Z,99726.23
2023-02-17T18:40:23.905Z,99718.91
2023-02-17T18:42:52.287Z,99715.89
2023-02-17T18:45:20.978Z,99708.39
2023-02-17T18:47:49.127Z,99711.78
2023-02-17T18:50:18.236Z,99711.58
2023-02-17T18:52:47.136Z,99698.52
2023-02-17T18:55:15.901Z,99690.77
2023-02-17T18:57:45.017Z,99697.29
2023-02-17T19:00:15.742Z,99695.29
2023-02-17T19:02:46.259Z,99687.86
2023-02-17T19:05:15.375Z,99688.30
2023-02-17T19:07:46.854Z,99687.54
2023-02-17T19:10:15.954Z,99684.49
2023-02-17T19:12:46.335Z,99680.03
2023-02-17T19:15:21.172Z,99678.00
2023-02-17T19:17:49.332Z,99686.37
2023-02-17T19:20:19.119Z,99675.63
2023-02-17T19:22:47.216Z,99670.05
2023-02-17T19:25:16.117Z,99662.86
2023-02-17T19:27:44.589Z,99665.24
2023-02-17T19:30:13.256Z,99655.59
2023-02-17T19:32:41.871Z,99654.60
2023-02-17T19:35:11.685Z,99658.52
2023-02-17T19:37:40.527Z,99662.98
2023-02-17T19:40:10.140Z,99675.30
2023-02-17T19:42:40.430Z,99672.39
2023-02-17T19:45:09.490Z,99669.90
2023-02-17T19:47:37.882Z,99664.10
2023-02-17T19:50:07.361Z,99661.22
2023-02-17T19:52:37.311Z,99655.16
2023-02-17T19:55:06.800Z,99649.66
2023-02-17T19:57:35.184Z,99640.83
2023-02-17T20:00:04.885Z,99634.73
2023-02-17T20:02:34.444Z,99629.09
2023-02-17T20:05:03.710Z,99619.77
2023-02-17T20:07:32.178Z,99621.70
2023-02-17T20:10:00.432Z,99621.38
2023-02-17T20:12:28.930Z,99616.15
2023-02-17T20:14:57.387Z,99611.64
2023-02-17T20:17:25.486Z,99605.62
2023-02-17T20:19:54.172Z,99595.31
2023-02-17T20:22:22.560Z,99587.52
2023-02-17T20:24:51.136Z,99587.63
2023-02-17T20:27:19.820Z,99585.79
2023-02-17T20:29:48.270Z,99592.04
2023-02-17T20:32:16.330Z,99582.52
2023-02-17T20:34:44.813Z,99579.59
2023-02-17T20:37:17.606Z,99573.39
2023-02-17T20:39:46.887Z,99568.19
2023-02-17T20:42:15.518Z,99560.82
2023-02-17T20:44:44.945Z,99555.55
2023-02-17T20:47:13.328Z,99546.43
2023-02-17T20:49:43.520Z,99544.02
2023-02-17T20:52:11.795Z,99542.26
2023-02-17T20:54:40.698Z,99538.61
2023-02-17T20:57:15.332Z,99535.95
2023-02-17T20:59:45.868Z,99525.84
2023-02-17T21:02:14.337Z,99515.61
2023-02-17T21:04:42.603Z,99514.84
2023-02-17T21:07:11.227Z,99509.80
2023-02-17T21:09:45.426Z,99507.32
2023-02-17T21:12:14.036Z,99505.86
2023-02-17T21:14:42.102Z,99502.66
2023-02-17T21:17:10.623Z,99490.56
2023-02-17T21:19:40.752Z,99475.75
2023-02-17T21:22:08.784Z,99481.03
2023-02-17T21:24:37.520Z,99469.62
2023-02-17T21:27:06.248Z,99460.33
2023-02-17T21:29:34.458Z,99456.99
2023-02-17T21:32:02.603Z,99446.36
2023-02-17T21:34:30.756Z,99433.02
2023-02-17T21:36:59.010Z,99429.38
2023-02-17T21:39:27.150Z,99420.42
2023-02-17T21:41:55.303Z,99420.73
2023-02-17T21:44:58.957Z,99416.52
2023-02-17T21:47:27.038Z,99401.33
2023-02-17T21:49:55.747Z,99404.93
2023-02-17T21:52:23.754Z,99403.30
2023-02-17T21:54:53.301Z,99393.90
2023-02-17T21:57:21.297Z,99390.65
2023-02-17T21:59:53.768Z,99388.69
2023-02-17T22:02:21.686Z,99388.57
2023-02-17T22:04:49.769Z,99377.32
2023-02-17T22:07:18.148Z,99368.95
2023-02-17T22:09:46.414Z,99370.75
2023-02-17T22:12:14.689Z,99363.04
2023-02-17T22:14:42.846Z,99361.72
2023-02-17T22:17:14.005Z,99352.40
2023-02-17T22:19:42.024Z,99346.30
2023-02-17T22:22:10.054Z,99340.36
2023-02-17T22:24:38.242Z,99342.10
2023-02-17T22:27:06.250Z,99343.75
2023-02-17T22:29:34.939Z,99330.58
2023-02-17T22:32:03.167Z,99321.22
2023-02-17T22:34:32.656Z,99322.17
2023-02-17T22:37:00.640Z,99322.27
2023-02-17T22:39:28.811Z,99318.48
2023-02-17T22:41:57.293Z,99313.59
2023-02-17T22:44:25.357Z,99314.05
2023-02-17T22:46:53.296Z,99305.46
2023-02-17T22:49:21.430Z,99299.48
2023-02-17T22:51:49.976Z,99294.77
2023-02-17T22:54:18.672Z,99291.66
2023-02-17T22:56:46.652Z,99295.77
2023-02-17T22:59:14.717Z,99299.70
2023-02-17T23:01:46.318Z,99289.27
2023-02-17T23:04:15.093Z,99282.52
2023-02-17T23:06:43.250Z,99286.14
2023-02-17T23:09:15.724Z,99270.58
2023-02-17T23:11:57.706Z,99268.79
2023-02-17T23:14:29.205Z,99263.34
2023-02-17T23:17:02.967Z,99256.66
2023-02-17T23:19:31.147Z,99257.15
2023-02-17T23:22:01.756Z,99257.94
2023-02-17T23:24:30.136Z,99254.13
2023-02-17T23:27:00.291Z,99257.38
2023-02-17T23:29:29.351Z,99270.33
2023-02-17T23:31:58.167Z,99258.85
2023-02-17T23:34:26.415Z,99253.52
2023-02-17T23:36:54.487Z,99245.70
2023-02-17T23:39:22.752Z,99244.50
2023-02-17T23:41:52.077Z,99237.10
2023-02-17T23:44:21.172Z,99233.34
2023-02-17T23:46:49.343Z,99230.05
2023-02-17T23:49:17.920Z,99220.33
2023-02-17T23:51:46.976Z,99215.72
2023-02-17T23:54:15.474Z,99217.23
2023-02-17T23:56:43.738Z,99213.15
2023-02-17T23:59:12.237Z,99203.38
